Time;durP1;ratioP1;P1;durP2;ratioP2;P2;SDS_P1;SDS_P2;PMS_P1;PMS_P2;Temp;Humidity;BMP_temperature;BMP_pressure;BME280_temperature;BME280_humidity;BME280_pressure;Samples;Min_cycle;Max_cycle;Signal;HPM_P1;HPM_P2
2022/08/04 00:02:26;;;;;;;0.40;0.40;;;22.50;99.90;;;;;;5092260;28;20301;-68
2022/08/04 00:05:26;;;;;;;0.40;0.40;;;22.50;99.90;;;;;;5086542;28;20216;-66
2022/08/04 00:08:22;;;;;;;0.40;0.40;;;22.50;99.90;;;;;;5072339;28;20217;-67
2022/08/04 00:11:15;;;;;;;0.40;0.40;;;22.50;99.90;;;;;;5072879;28;20197;-68
2022/08/04 00:14:05;;;;;;;0.40;0.40;;;22.60;99.90;;;;;;5072106;28;20225;-66
2022/08/04 00:16:54;;;;;;;0.40;0.40;;;22.50;99.90;;;;;;5071678;28;20205;-65
2022/08/04 00:19:47;;;;;;;0.40;0.40;;;22.50;99.90;;;;;;5072922;28;20194;-66
2022/08/04 00:22:39;;;;;;;0.40;0.40;;;22.60;99.90;;;;;;5073061;28;20209;-66
2022/08/04 00:25:29;;;;;;;0.40;0.40;;;22.60;99.90;;;;;;5074785;28;20200;-68
2022/08/04 00:28:17;;;;;;;0.50;0.50;;;22.60;99.90;;;;;;5077964;28;20766;-67
2022/08/04 00:31:09;;;;;;;0.40;0.40;;;22.40;99.90;;;;;;5077619;28;20200;-67
2022/08/04 00:33:58;;;;;;;0.40;0.40;;;22.40;99.90;;;;;;5077746;28;20231;-64
2022/08/04 00:36:46;;;;;;;0.40;0.40;;;22.30;99.90;;;;;;5078004;28;20205;-67
2022/08/04 00:39:34;;;;;;;0.40;0.40;;;22.30;99.90;;;;;;5078007;28;20200;-65
2022/08/04 00:42:44;;;;;;;0.40;0.40;;;22.30;99.90;;;;;;5077915;28;20205;-65
2022/08/04 00:46:27;;;;;;;0.40;0.40;;;22.20;99.90;;;;;;5078615;28;20205;-67
2022/08/04 00:49:43;;;;;;;0.40;0.40;;;22.20;99.90;;;;;;5078514;28;20211;-66
2022/08/04 00:52:54;;;;;;;0.40;0.40;;;22.00;99.90;;;;;;5077525;28;20193;-67
2022/08/04 00:56:08;;;;;;;0.40;0.40;;;22.00;99.90;;;;;;5078929;28;20219;-65
2022/08/04 00:59:08;;;;;;;0.40;0.40;;;21.90;99.90;;;;;;5079197;28;20196;-68
2022/08/04 01:02:00;;;;;;;0.40;0.40;;;21.90;99.90;;;;;;5076607;28;20200;-66
2022/08/04 01:04:57;;;;;;;0.40;0.40;;;21.90;99.90;;;;;;5075262;28;20256;-68
2022/08/04 01:08:17;;;;;;;0.40;0.40;;;21.90;99.90;;;;;;5091068;28;20219;-65
2022/08/04 01:11:17;;;;;;;0.40;0.40;;;21.90;99.90;;;;;;5094690;28;20285;-66
2022/08/04 01:14:31;;;;;;;0.40;0.40;;;22.00;99.90;;;;;;5094716;28;20769;-68
2022/08/04 01:17:24;;;;;;;0.40;0.40;;;22.10;99.90;;;;;;5094922;28;20238;-67
2022/08/04 01:20:17;;;;;;;0.40;0.40;;;21.90;99.90;;;;;;5095192;28;20196;-65
2022/08/04 01:23:45;;;;;;;0.40;0.40;;;21.90;99.90;;;;;;5094730;28;20207;-67
2022/08/04 01:26:57;;;;;;;0.40;0.40;;;21.90;99.90;;;;;;5095171;28;20252;-67
2022/08/04 01:29:50;;;;;;;0.40;0.40;;;21.90;99.90;;;;;;5094494;28;20195;-67
2022/08/04 01:32:49;;;;;;;0.40;0.40;;;21.80;99.90;;;;;;5095469;28;20327;-68
2022/08/04 01:35:47;;;;;;;0.40;0.40;;;21.80;99.90;;;;;;5095747;28;20200;-67
2022/08/04 01:38:37;;;;;;;0.50;0.50;;;21.80;99.90;;;;;;5094206;28;20576;-67
2022/08/04 01:41:25;;;;;;;0.40;0.40;;;21.70;99.90;;;;;;5095117;28;20203;-67
2022/08/04 01:44:21;;;;;;;0.55;0.55;;;21.70;99.90;;;;;;5094373;28;20236;-66
2022/08/04 01:47:11;;;;;;;0.40;0.40;;;21.70;99.90;;;;;;5095128;28;20243;-67
2022/08/04 01:50:05;;;;;;;0.40;0.40;;;21.60;99.90;;;;;;5096017;28;20200;-66
2022/08/04 01:52:55;;;;;;;0.40;0.40;;;21.60;99.90;;;;;;5095736;28;20208;-68
2022/08/04 01:55:43;;;;;;;0.40;0.40;;;21.70;99.90;;;;;;5095034;28;20249;-67
2022/08/04 01:58:42;;;;;;;0.47;0.47;;;21.50;99.90;;;;;;5083820;28;20517;-68
2022/08/04 02:01:36;;;;;;;0.50;0.50;;;21.40;99.90;;;;;;5075862;28;20286;-70
2022/08/04 02:04:25;;;;;;;0.40;0.40;;;21.50;99.90;;;;;;5074388;28;20227;-70
2022/08/04 02:07:33;;;;;;;0.40;0.40;;;21.40;99.90;;;;;;5054433;28;20194;-69
2022/08/04 02:10:27;;;;;;;0.40;0.40;;;21.30;99.90;;;;;;5055319;28;20228;-69
2022/08/04 02:13:21;;;;;;;0.50;0.50;;;21.20;99.90;;;;;;5054178;28;20197;-66
2022/08/04 02:16:21;;;;;;;0.50;0.50;;;21.20;99.90;;;;;;5053795;28;20193;-66
2022/08/04 02:19:19;;;;;;;0.47;0.47;;;21.20;99.90;;;;;;5053530;28;20197;-70
2022/08/04 02:22:13;;;;;;;0.40;0.40;;;21.20;99.90;;;;;;5053504;28;20259;-70
2022/08/04 02:25:06;;;;;;;0.40;0.40;;;21.00;99.90;;;;;;5054258;28;20291;-67
2022/08/04 02:28:07;;;;;;;0.50;0.50;;;21.00;99.90;;;;;;5054758;28;20217;-68
2022/08/04 02:31:11;;;;;;;0.40;0.40;;;21.00;99.90;;;;;;5054091;28;20209;-68
2022/08/04 02:34:06;;;;;;;0.40;0.40;;;21.00;99.90;;;;;;5053547;28;20589;-67
2022/08/04 02:36:55;;;;;;;0.40;0.40;;;20.90;99.90;;;;;;5054569;28;20243;-67
2022/08/04 02:39:45;;;;;;;0.50;0.50;;;21.00;99.90;;;;;;5053868;28;20193;-67
2022/08/04 02:42:35;;;;;;;0.40;0.40;;;20.90;99.90;;;;;;5053268;28;20204;-68
2022/08/04 02:45:26;;;;;;;0.40;0.40;;;20.80;99.90;;;;;;5053714;28;20224;-69
2022/08/04 02:48:15;;;;;;;0.40;0.40;;;20.80;99.90;;;;;;5053037;28;20225;-68
2022/08/04 02:51:25;;;;;;;0.40;0.40;;;20.80;99.90;;;;;;5052568;28;20201;-68
2022/08/04 02:54:16;;;;;;;0.40;0.40;;;20.70;99.90;;;;;;5052997;28;20275;-67
2022/08/04 02:57:24;;;;;;;0.40;0.40;;;20.70;99.90;;;;;;5053932;28;20201;-67
2022/08/04 03:00:14;;;;;;;0.40;0.40;;;20.70;99.90;;;;;;5053485;28;20436;-67
2022/08/04 03:03:15;;;;;;;0.40;0.40;;;20.60;99.90;;;;;;5054258;28;20655;-67
2022/08/04 03:06:34;;;;;;;0.40;0.40;;;20.60;99.90;;;;;;5079915;28;20597;-68
2022/08/04 03:09:50;;;;;;;0.50;0.50;;;20.60;99.90;;;;;;5093958;28;20215;-70
2022/08/04 03:13:09;;;;;;;0.40;0.40;;;20.50;99.90;;;;;;5093777;28;20202;-65
2022/08/04 03:16:12;;;;;;;0.40;0.40;;;20.50;99.90;;;;;;5093650;28;20199;-69
2022/08/04 03:19:34;;;;;;;0.40;0.40;;;20.50;99.90;;;;;;5094010;28;20192;-68
2022/08/04 03:22:38;;;;;;;0.40;0.40;;;20.50;99.90;;;;;;5093335;28;20200;-70
2022/08/04 03:26:17;;;;;;;0.40;0.40;;;20.50;99.90;;;;;;5093250;28;20336;-68
2022/08/04 03:29:38;;;;;;;0.40;0.40;;;20.40;99.90;;;;;;5093849;28;20291;-65
2022/08/04 03:33:14;;;;;;;0.40;0.40;;;20.50;99.90;;;;;;5093317;28;20222;-68
2022/08/04 03:36:29;;;;;;;0.43;0.43;;;20.40;99.90;;;;;;5092388;28;20215;-67
2022/08/04 03:40:07;;;;;;;0.50;0.50;;;20.40;99.90;;;;;;5094076;28;20192;-68
2022/08/04 03:43:24;;;;;;;0.40;0.40;;;20.40;99.90;;;;;;5092835;28;20196;-68
2022/08/04 03:47:10;;;;;;;0.50;0.50;;;20.40;99.90;;;;;;5093019;28;20332;-68
2022/08/04 03:50:13;;;;;;;0.50;0.50;;;20.40;99.90;;;;;;5092583;28;20215;-67
2022/08/04 03:53:32;;;;;;;0.50;0.50;;;20.40;99.90;;;;;;5093591;28;20207;-70
2022/08/04 03:56:43;;;;;;;0.40;0.40;;;20.40;99.90;;;;;;5092615;28;20752;-67
2022/08/04 03:59:52;;;;;;;0.40;0.40;;;20.50;99.90;;;;;;5092689;28;20199;-69
2022/08/04 04:03:23;;;;;;;0.40;0.40;;;20.50;99.90;;;;;;5092145;28;20661;-67
2022/08/04 04:06:43;;;;;;;0.40;0.40;;;20.50;99.90;;;;;;5030296;28;20197;-70
2022/08/04 04:10:18;;;;;;;0.40;0.40;;;20.50;99.90;;;;;;5032576;28;20218;-68
2022/08/04 04:13:34;;;;;;;0.40;0.40;;;20.50;99.90;;;;;;5072764;28;20192;-66
2022/08/04 04:16:54;;;;;;;0.40;0.40;;;20.60;99.90;;;;;;5071785;28;20273;-68
2022/08/04 04:20:13;;;;;;;0.45;0.45;;;20.70;99.90;;;;;;5071473;28;20192;-66
2022/08/04 04:23:15;;;;;;;0.40;0.40;;;20.70;99.90;;;;;;5071296;28;20199;-68
2022/08/04 04:26:35;;;;;;;0.40;0.40;;;20.70;99.90;;;;;;5072282;28;20204;-67
2022/08/04 04:29:41;;;;;;;0.40;0.40;;;20.80;99.90;;;;;;5071652;28;20303;-64
2022/08/04 04:32:42;;;;;;;0.40;0.40;;;20.80;99.90;;;;;;5071526;28;20200;-64
2022/08/04 04:35:41;;;;;;;0.40;0.40;;;20.90;99.90;;;;;;5071655;28;20207;-64
2022/08/04 04:39:01;;;;;;;0.50;0.50;;;21.00;99.90;;;;;;5071062;28;20206;-66
2022/08/04 04:42:16;;;;;;;0.40;0.40;;;21.00;99.90;;;;;;5071550;28;20201;-68
2022/08/04 04:45:23;;;;;;;0.40;0.40;;;21.00;99.90;;;;;;5072421;28;20223;-65
2022/08/04 04:48:23;;;;;;;0.40;0.40;;;21.10;99.90;;;;;;5074422;28;20205;-67
2022/08/04 04:51:23;;;;;;;0.50;0.50;;;21.00;99.90;;;;;;5075242;28;20216;-65
2022/08/04 04:54:19;;;;;;;0.40;0.40;;;21.20;99.90;;;;;;5075384;28;20231;-66
2022/08/04 04:57:15;;;;;;;0.40;0.40;;;21.20;99.90;;;;;;5074085;28;20203;-66
2022/08/04 05:00:05;;;;;;;0.40;0.40;;;21.20;99.90;;;;;;5075176;28;20200;-66
2022/08/04 05:03:16;;;;;;;0.40;0.40;;;21.20;99.90;;;;;;5074711;28;20264;-65
2022/08/04 05:06:38;;;;;;;0.40;0.40;;;21.30;99.90;;;;;;5074719;28;20207;-70
2022/08/04 05:09:37;;;;;;;0.50;0.50;;;21.40;99.90;;;;;;5070972;28;20213;-67
2022/08/04 05:12:52;;;;;;;0.40;0.40;;;21.40;99.90;;;;;;5074144;28;20214;-66
2022/08/04 05:16:06;;;;;;;0.77;0.77;;;21.40;99.90;;;;;;5073689;28;20228;-65
2022/08/04 05:19:03;;;;;;;0.40;0.40;;;21.50;99.90;;;;;;5075632;28;20200;-65
2022/08/04 05:22:00;;;;;;;0.40;0.40;;;21.60;99.90;;;;;;5074802;28;20212;-65
2022/08/04 05:24:53;;;;;;;0.40;0.40;;;21.70;99.90;;;;;;5073782;28;20262;-67
2022/08/04 05:27:50;;;;;;;0.40;0.40;;;21.70;99.90;;;;;;5075813;28;20685;-64
2022/08/04 05:30:47;;;;;;;0.50;0.50;;;21.70;99.90;;;;;;5074360;28;20268;-64
2022/08/04 05:33:47;;;;;;;0.40;0.40;;;21.80;99.90;;;;;;5074655;28;20227;-66
2022/08/04 05:36:40;;;;;;;0.40;0.40;;;21.90;99.90;;;;;;5073890;28;20201;-64
2022/08/04 05:39:36;;;;;;;0.40;0.40;;;21.90;99.90;;;;;;5073320;28;20196;-65
2022/08/04 05:42:25;;;;;;;0.40;0.40;;;22.00;99.90;;;;;;5074589;28;20200;-64
2022/08/04 05:45:14;;;;;;;0.40;0.40;;;22.10;99.90;;;;;;5074936;28;20212;-64
2022/08/04 05:48:03;;;;;;;0.40;0.40;;;22.30;99.90;;;;;;5074613;28;20203;-66
2022/08/04 05:50:52;;;;;;;0.40;0.40;;;22.30;99.90;;;;;;5073654;28;20728;-64
2022/08/04 05:53:46;;;;;;;0.40;0.40;;;22.30;99.90;;;;;;5074373;28;20221;-64
2022/08/04 05:56:36;;;;;;;0.40;0.40;;;22.40;99.90;;;;;;5074048;28;20204;-64
2022/08/04 05:59:25;;;;;;;0.40;0.40;;;22.70;99.90;;;;;;5074944;28;20200;-64
2022/08/04 06:02:15;;;;;;;0.40;0.40;;;22.70;99.90;;;;;;5074744;28;20208;-64
2022/08/04 06:05:06;;;;;;;0.40;0.40;;;22.70;99.90;;;;;;5077003;28;20240;-64
2022/08/04 06:07:54;;;;;;;0.40;0.40;;;22.80;99.90;;;;;;5093859;28;20200;-64
2022/08/04 06:11:04;;;;;;;0.40;0.40;;;22.90;99.90;;;;;;5094524;28;20216;-64
2022/08/04 06:13:58;;;;;;;0.40;0.40;;;23.00;99.90;;;;;;5093831;28;20220;-64
2022/08/04 06:16:49;;;;;;;0.40;0.40;;;23.10;99.90;;;;;;5095142;28;20200;-64
2022/08/04 06:19:40;;;;;;;0.50;0.50;;;23.10;99.90;;;;;;5095462;28;20672;-64
2022/08/04 06:22:53;;;;;;;0.40;0.40;;;23.30;99.90;;;;;;5094457;28;20276;-64
2022/08/04 06:25:46;;;;;;;0.40;0.40;;;23.30;99.90;;;;;;5082718;28;20681;-63
2022/08/04 06:28:35;;;;;;;0.40;0.40;;;23.40;99.90;;;;;;5075759;28;20720;-63
2022/08/04 06:31:41;;;;;;;0.50;0.50;;;23.60;99.90;;;;;;5077160;28;20700;-63
2022/08/04 06:34:52;;;;;;;0.40;0.40;;;23.60;99.90;;;;;;5068791;28;20349;-65
2022/08/04 06:37:41;;;;;;;0.50;0.50;;;23.80;99.90;;;;;;5074814;28;20223;-63
2022/08/04 06:40:32;;;;;;;0.40;0.40;;;24.00;99.90;;;;;;5074159;28;20188;-63
2022/08/04 06:43:23;;;;;;;0.40;0.40;;;24.10;99.90;;;;;;5074629;28;20193;-65
2022/08/04 06:46:14;;;;;;;0.40;0.40;;;24.10;99.90;;;;;;5075301;28;20212;-64
2022/08/04 06:49:05;;;;;;;0.40;0.40;;;24.20;99.90;;;;;;5074145;28;20200;-66
2022/08/04 06:51:55;;;;;;;0.40;0.40;;;24.30;99.90;;;;;;5074330;28;20192;-64
2022/08/04 06:54:44;;;;;;;0.40;0.40;;;24.40;99.90;;;;;;5074410;28;20225;-65
2022/08/04 06:57:36;;;;;;;0.40;0.40;;;24.50;99.90;;;;;;5074331;28;20254;-65
2022/08/04 07:00:25;;;;;;;0.40;0.40;;;24.60;99.90;;;;;;5072694;28;20205;-65
2022/08/04 07:03:16;;;;;;;0.40;0.40;;;24.70;99.90;;;;;;5074091;28;20307;-64
2022/08/04 07:06:06;;;;;;;0.40;0.40;;;24.80;99.90;;;;;;5074018;28;20201;-64
2022/08/04 07:09:02;;;;;;;0.40;0.40;;;24.90;99.90;;;;;;5074325;28;20666;-64
2022/08/04 07:11:53;;;;;;;0.40;0.40;;;25.10;99.90;;;;;;5074120;28;20252;-64
2022/08/04 07:14:42;;;;;;;0.40;0.40;;;25.20;99.90;;;;;;5072454;28;20699;-64
2022/08/04 07:17:31;;;;;;;0.40;0.40;;;25.20;99.90;;;;;;5073777;28;20200;-65
2022/08/04 07:20:22;;;;;;;0.40;0.40;;;25.30;99.90;;;;;;5073825;28;20281;-63
2022/08/04 07:23:25;;;;;;;0.40;0.40;;;25.40;99.90;;;;;;5074193;28;20223;-64
2022/08/04 07:26:14;;;;;;;0.40;0.40;;;25.50;99.90;;;;;;5072303;28;20688;-65
2022/08/04 07:29:02;;;;;;;0.50;0.50;;;25.70;99.90;;;;;;5072442;28;20204;-63
2022/08/04 07:31:51;;;;;;;0.40;0.40;;;25.70;99.90;;;;;;5083299;28;20312;-63
2022/08/04 07:34:40;;;;;;;0.40;0.40;;;25.80;99.90;;;;;;5093632;28;20641;-63
2022/08/04 07:37:29;;;;;;;0.50;0.50;;;25.90;99.90;;;;;;5092385;28;20293;-63
2022/08/04 07:40:28;;;;;;;0.40;0.40;;;26.00;99.90;;;;;;5093898;28;20273;-63
2022/08/04 07:43:17;;;;;;;0.40;0.40;;;26.10;99.90;;;;;;5092872;28;20200;-65
2022/08/04 07:46:05;;;;;;;0.40;0.40;;;26.20;99.90;;;;;;5092393;28;20200;-65
2022/08/04 07:48:54;;;;;;;0.40;0.40;;;26.30;99.90;;;;;;5092061;28;20227;-65
2022/08/04 07:51:42;;;;;;;0.40;0.40;;;26.40;99.90;;;;;;5092676;28;20227;-65
2022/08/04 07:54:31;;;;;;;0.40;0.40;;;26.50;99.90;;;;;;5091972;28;20688;-64
2022/08/04 07:57:21;;;;;;;0.40;0.40;;;26.60;99.90;;;;;;5092122;28;20199;-63
2022/08/04 08:00:30;;;;;;;0.40;0.40;;;26.40;99.90;;;;;;5091735;28;20188;-65
2022/08/04 08:03:20;;;;;;;0.40;0.40;;;26.90;99.90;;;;;;5091461;28;20207;-64
2022/08/04 08:06:09;;;;;;;0.40;0.40;;;27.00;99.90;;;;;;5091958;28;20337;-65
2022/08/04 08:09:20;;;;;;;0.40;0.40;;;27.20;99.90;;;;;;5091871;28;20200;-65
2022/08/04 08:12:10;;;;;;;0.40;0.40;;;27.30;99.90;;;;;;5091934;28;20299;-64
2022/08/04 08:15:20;;;;;;;0.50;0.50;;;27.40;99.90;;;;;;5091446;28;20293;-63
2022/08/04 08:18:08;;;;;;;0.40;0.40;;;27.60;99.90;;;;;;5092664;28;20203;-64
2022/08/04 08:20:57;;;;;;;0.40;0.40;;;27.60;99.90;;;;;;5090683;28;20664;-63
2022/08/04 08:23:45;;;;;;;0.40;0.40;;;27.60;99.90;;;;;;5091511;28;20650;-63
2022/08/04 08:26:34;;;;;;;0.40;0.40;;;27.80;99.90;;;;;;5091379;28;20191;-63
2022/08/04 08:29:24;;;;;;;0.40;0.40;;;27.90;99.90;;;;;;5092208;28;20252;-63
2022/08/04 08:32:14;;;;;;;0.40;0.40;;;28.00;99.90;;;;;;5091738;28;20222;-63
2022/08/04 08:35:03;;;;;;;0.40;0.40;;;28.20;99.90;;;;;;5090903;28;20572;-63
2022/08/04 08:37:57;;;;;;;0.40;0.40;;;28.20;99.90;;;;;;5090956;28;20624;-63
2022/08/04 08:40:52;;;;;;;0.40;0.40;;;28.30;99.70;;;;;;5090926;28;20664;-63
2022/08/04 08:43:49;;;;;;;0.40;0.40;;;28.40;99.40;;;;;;5091288;28;20220;-63
2022/08/04 08:47:06;;;;;;;0.40;0.40;;;28.50;99.20;;;;;;5091488;28;20200;-63
2022/08/04 08:50:12;;;;;;;0.40;0.40;;;28.60;98.80;;;;;;5091323;28;20234;-62
2022/08/04 08:53:26;;;;;;;0.40;0.40;;;28.80;98.80;;;;;;5091200;28;20219;-62
2022/08/04 08:56:32;;;;;;;0.40;0.40;;;28.70;98.30;;;;;;5091488;28;20195;-62
2022/08/04 08:59:38;;;;;;;0.40;0.40;;;28.90;98.00;;;;;;5091461;28;20202;-63
2022/08/04 09:03:00;;;;;;;0.40;0.40;;;28.90;97.20;;;;;;5090216;28;20233;-63
2022/08/04 09:06:04;;;;;;;0.40;0.40;;;29.10;96.30;;;;;;5078988;28;20193;-63
2022/08/04 09:09:10;;;;;;;0.40;0.40;;;29.20;95.40;;;;;;5071672;28;20589;-63
2022/08/04 09:12:06;;;;;;;0.40;0.40;;;29.30;94.90;;;;;;5051182;28;20228;-63
2022/08/04 09:15:02;;;;;;;0.40;0.40;;;29.40;94.10;;;;;;5050037;28;20233;-63
2022/08/04 09:17:55;;;;;;;0.40;0.40;;;29.50;93.30;;;;;;5049602;28;20838;-63
2022/08/04 09:20:48;;;;;;;0.40;0.40;;;29.50;93.20;;;;;;5050839;28;20711;-63
2022/08/04 09:23:56;;;;;;;0.40;0.40;;;29.70;93.40;;;;;;5050029;28;20217;-63
2022/08/04 09:26:50;;;;;;;0.40;0.40;;;29.80;92.70;;;;;;5050898;28;20260;-63
2022/08/04 09:29:53;;;;;;;0.40;0.40;;;29.90;91.70;;;;;;5049913;28;20197;-62
2022/08/04 09:32:47;;;;;;;0.40;0.40;;;30.10;90.70;;;;;;5068688;28;20232;-62
2022/08/04 09:35:46;;;;;;;0.50;0.50;;;30.20;89.60;;;;;;5070983;28;20612;-62
2022/08/04 09:38:46;;;;;;;0.50;0.50;;;30.30;88.40;;;;;;5072506;28;20200;-63
2022/08/04 09:41:48;;;;;;;0.40;0.40;;;30.40;87.50;;;;;;5074657;28;20207;-63
2022/08/04 09:44:48;;;;;;;0.93;0.93;;;30.50;83.40;;;;;;5071385;28;20255;-63
2022/08/04 09:47:50;;;;;;;0.50;0.50;;;30.50;82.90;;;;;;5082723;28;20203;-63
2022/08/04 09:50:40;;;;;;;0.40;0.40;;;30.70;82.70;;;;;;5092877;28;20200;-63
2022/08/04 09:53:52;;;;;;;0.40;0.40;;;30.80;81.20;;;;;;5093766;28;20231;-63
2022/08/04 09:56:49;;;;;;;0.40;0.40;;;30.90;79.50;;;;;;5093988;28;20212;-63
2022/08/04 09:59:43;;;;;;;0.40;0.40;;;31.00;78.80;;;;;;5086826;28;20197;-63
2022/08/04 10:02:35;;;;;;;0.40;0.40;;;31.10;78.90;;;;;;5073961;28;20627;-63
2022/08/04 10:05:26;;;;;;;0.40;0.40;;;31.10;75.50;;;;;;5073952;28;20224;-63
2022/08/04 10:08:29;;;;;;;0.40;0.40;;;31.20;77.00;;;;;;5073363;28;20274;-63
2022/08/04 10:11:27;;;;;;;0.40;0.40;;;31.40;76.00;;;;;;5073761;28;20555;-63
2022/08/04 10:14:29;;;;;;;0.40;0.40;;;31.40;75.30;;;;;;5073753;28;20232;-63
2022/08/04 10:17:34;;;;;;;0.40;0.40;;;31.50;75.50;;;;;;5075416;28;20614;-63
2022/08/04 10:20:37;;;;;;;0.40;0.40;;;31.60;74.20;;;;;;5075079;28;20196;-63
2022/08/04 10:23:40;;;;;;;0.40;0.40;;;31.70;74.50;;;;;;5074884;28;20220;-63
2022/08/04 10:26:55;;;;;;;0.40;0.40;;;31.80;76.10;;;;;;5074326;28;20201;-63
2022/08/04 10:29:46;;;;;;;0.40;0.40;;;31.80;76.60;;;;;;5074916;28;20738;-63
2022/08/04 10:32:41;;;;;;;0.40;0.40;;;31.90;76.70;;;;;;5074737;28;20221;-63
2022/08/04 10:35:37;;;;;;;0.40;0.40;;;32.00;76.90;;;;;;5073992;28;20205;-63
2022/08/04 10:38:30;;;;;;;0.40;0.40;;;32.00;75.70;;;;;;5094721;28;20623;-63
2022/08/04 10:41:27;;;;;;;0.40;0.40;;;32.20;75.60;;;;;;5094519;28;20679;-63
2022/08/04 10:44:28;;;;;;;0.40;0.40;;;32.20;74.90;;;;;;5094269;28;20351;-63
2022/08/04 10:47:37;;;;;;;0.40;0.40;;;32.20;75.60;;;;;;5094181;28;20242;-63
2022/08/04 10:50:28;;;;;;;0.40;0.40;;;32.30;74.40;;;;;;5093813;28;20222;-64
2022/08/04 10:53:22;;;;;;;0.40;0.40;;;32.40;74.00;;;;;;5094062;28;20567;-63
2022/08/04 10:56:17;;;;;;;0.40;0.40;;;32.40;73.00;;;;;;5094472;28;20203;-64
2022/08/04 10:59:11;;;;;;;0.40;0.40;;;32.40;73.40;;;;;;5094392;28;20211;-63
2022/08/04 11:02:10;;;;;;;0.40;0.40;;;32.40;73.10;;;;;;5093304;28;20188;-63
2022/08/04 11:05:12;;;;;;;0.40;0.40;;;32.50;72.60;;;;;;5093185;28;20257;-62
2022/08/04 11:08:04;;;;;;;0.40;0.40;;;32.60;72.50;;;;;;5094333;28;20199;-63
2022/08/04 11:11:02;;;;;;;0.40;0.40;;;32.80;71.20;;;;;;5094966;28;20271;-63
2022/08/04 11:14:04;;;;;;;0.45;0.45;;;32.90;71.10;;;;;;5093351;28;20219;-63
2022/08/04 11:16:57;;;;;;;0.40;0.40;;;32.90;71.60;;;;;;5093789;28;20202;-63
2022/08/04 11:19:49;;;;;;;0.40;0.40;;;32.90;70.80;;;;;;5093513;28;20197;-63
2022/08/04 11:22:52;;;;;;;0.40;0.40;;;33.10;70.40;;;;;;5092892;28;20196;-63
2022/08/04 11:25:49;;;;;;;0.40;0.40;;;33.30;69.30;;;;;;5093401;28;20196;-63
2022/08/04 11:28:48;;;;;;;0.40;0.40;;;33.40;70.00;;;;;;5093463;28;20207;-63
2022/08/04 11:31:50;;;;;;;0.40;0.40;;;33.60;69.70;;;;;;5093006;28;20196;-63
2022/08/04 11:34:48;;;;;;;0.43;0.43;;;33.90;69.90;;;;;;5093740;28;20219;-63
2022/08/04 11:37:48;;;;;;;0.60;0.60;;;34.10;67.80;;;;;;5074477;28;20193;-63
2022/08/04 11:40:41;;;;;;;0.40;0.40;;;34.40;68.00;;;;;;5072892;28;20204;-64
2022/08/04 11:43:55;;;;;;;0.40;0.40;;;34.70;66.70;;;;;;5078149;28;20295;-63
2022/08/04 11:46:56;;;;;;;0.40;0.40;;;35.00;65.50;;;;;;5093393;28;20207;-63
2022/08/04 11:49:49;;;;;;;0.40;0.40;;;35.20;64.30;;;;;;5092576;28;20245;-63
2022/08/04 11:52:47;;;;;;;0.40;0.40;;;35.30;64.10;;;;;;5092149;28;20269;-63
2022/08/04 11:55:37;;;;;;;0.40;0.40;;;35.40;63.80;;;;;;5091639;28;20212;-63
2022/08/04 11:58:45;;;;;;;0.40;0.40;;;35.50;63.80;;;;;;5092207;28;20334;-63
2022/08/04 12:01:50;;;;;;;0.45;0.45;;;35.60;63.60;;;;;;5092139;28;20266;-63
2022/08/04 12:04:47;;;;;;;0.40;0.40;;;35.60;62.60;;;;;;5093027;28;20275;-64
2022/08/04 12:07:44;;;;;;;0.40;0.40;;;35.60;59.50;;;;;;5092662;28;20211;-63
2022/08/04 12:10:45;;;;;;;1.35;1.25;;;35.50;59.30;;;;;;5091684;28;20236;-63
2022/08/04 12:13:42;;;;;;;0.50;0.50;;;35.40;59.40;;;;;;5092016;28;20277;-64
2022/08/04 12:16:41;;;;;;;0.40;0.40;;;35.40;58.50;;;;;;5092728;28;20200;-63
2022/08/04 12:19:34;;;;;;;0.40;0.40;;;35.30;58.40;;;;;;5091996;28;20199;-64
2022/08/04 12:22:47;;;;;;;0.40;0.40;;;35.40;58.30;;;;;;5091864;28;20329;-63
2022/08/04 12:25:41;;;;;;;0.40;0.40;;;35.40;58.10;;;;;;5092169;28;20211;-64
2022/08/04 12:28:34;;;;;;;0.50;0.50;;;35.40;57.60;;;;;;5092627;28;20228;-64
2022/08/04 12:31:48;;;;;;;0.63;0.63;;;35.50;57.10;;;;;;5092737;28;20245;-63
2022/08/04 12:34:42;;;;;;;0.40;0.40;;;35.70;57.00;;;;;;5092001;28;20229;-63
2022/08/04 12:37:42;;;;;;;0.40;0.40;;;36.00;57.20;;;;;;5073539;28;20205;-63
2022/08/04 12:40:36;;;;;;;0.40;0.40;;;36.30;56.50;;;;;;5072417;28;20208;-63
2022/08/04 12:43:33;;;;;;;0.40;0.40;;;36.40;54.40;;;;;;5072683;28;20604;-63
2022/08/04 12:46:24;;;;;;;0.50;0.50;;;36.50;54.00;;;;;;5071821;28;20208;-63
2022/08/04 12:49:14;;;;;;;0.50;0.50;;;36.80;52.90;;;;;;5072037;28;20204;-64
2022/08/04 12:52:05;;;;;;;0.50;0.50;;;37.40;53.70;;;;;;5072017;28;20678;-63
2022/08/04 12:54:58;;;;;;;0.40;0.40;;;38.10;51.40;;;;;;5071358;28;20217;-64
2022/08/04 12:57:49;;;;;;;1.45;1.35;;;39.10;50.60;;;;;;5072146;28;20208;-65
2022/08/04 13:00:39;;;;;;;0.50;0.50;;;40.20;47.90;;;;;;5071511;28;20556;-64
2022/08/04 13:03:37;;;;;;;0.60;0.60;;;40.90;46.60;;;;;;5072304;28;20265;-64
2022/08/04 13:06:28;;;;;;;0.50;0.50;;;41.40;45.50;;;;;;5073910;28;20228;-65
2022/08/04 13:09:19;;;;;;;0.40;0.40;;;42.60;43.80;;;;;;5076249;28;20201;-65
2022/08/04 13:12:12;;;;;;;0.50;0.50;;;44.10;41.90;;;;;;5075478;28;20207;-65
2022/08/04 13:15:10;;;;;;;0.50;0.50;;;44.70;40.60;;;;;;5076704;28;20232;-64
2022/08/04 13:18:09;;;;;;;0.50;0.50;;;44.20;40.30;;;;;;5076270;28;20197;-64
2022/08/04 13:21:11;;;;;;;0.40;0.40;;;43.50;40.60;;;;;;5073876;28;20575;-64
2022/08/04 13:24:12;;;;;;;0.50;0.50;;;43.40;41.00;;;;;;5075323;28;20358;-65
2022/08/04 13:27:12;;;;;;;0.50;0.50;;;44.70;39.10;;;;;;5075989;28;20196;-65
2022/08/04 13:30:06;;;;;;;0.50;0.50;;;46.40;37.50;;;;;;5074374;28;20197;-65
2022/08/04 13:32:59;;;;;;;0.50;0.50;;;47.10;36.30;;;;;;5074805;28;20223;-66
2022/08/04 13:35:49;;;;;;;0.50;0.50;;;47.40;35.90;;;;;;5078949;28;20192;-64
2022/08/04 13:38:49;;;;;;;0.60;0.60;;;48.20;35.50;;;;;;5095774;28;20298;-64
2022/08/04 13:41:43;;;;;;;0.60;0.60;;;49.20;34.40;;;;;;5094985;28;20200;-64
2022/08/04 13:44:46;;;;;;;0.60;0.60;;;50.50;32.90;;;;;;5095561;28;20605;-65
2022/08/04 13:47:37;;;;;;;0.70;0.70;;;50.70;31.80;;;;;;5095958;28;20235;-64
2022/08/04 13:50:28;;;;;;;0.60;0.60;;;50.70;31.60;;;;;;5094603;28;20204;-64
2022/08/04 13:53:18;;;;;;;0.68;0.68;;;50.00;32.10;;;;;;5095019;28;20731;-64
2022/08/04 13:56:12;;;;;;;0.70;0.70;;;49.70;32.20;;;;;;5095013;28;20204;-64
2022/08/04 13:59:03;;;;;;;0.70;0.70;;;50.50;31.80;;;;;;5094646;28;20745;-64
2022/08/04 14:01:59;;;;;;;0.70;0.70;;;51.40;30.80;;;;;;5094949;28;20203;-64
2022/08/04 14:04:55;;;;;;;0.70;0.70;;;51.30;31.20;;;;;;5095967;28;20216;-64
2022/08/04 14:07:47;;;;;;;0.70;0.70;;;50.60;30.90;;;;;;5095992;28;20219;-64
2022/08/04 14:10:36;;;;;;;0.70;0.70;;;49.30;32.10;;;;;;5096143;28;20200;-64
2022/08/04 14:13:32;;;;;;;0.93;0.93;;;48.10;32.90;;;;;;5095280;28;20313;-65
2022/08/04 14:16:28;;;;;;;0.50;0.50;;;46.00;33.50;;;;;;5096207;28;20629;-65
2022/08/04 14:19:17;;;;;;;0.82;0.82;;;44.90;34.80;;;;;;5095527;28;20203;-64
2022/08/04 14:22:05;;;;;;;0.60;0.60;;;43.90;35.30;;;;;;5097853;28;20213;-65
2022/08/04 14:24:56;;;;;;;0.60;0.60;;;43.50;36.00;;;;;;5097285;28;20217;-65
2022/08/04 14:27:48;;;;;;;0.50;0.50;;;44.50;35.30;;;;;;5095367;28;20729;-65
2022/08/04 14:30:37;;;;;;;0.60;0.60;;;46.50;34.30;;;;;;5094885;28;20196;-65
2022/08/04 14:33:37;;;;;;;0.60;0.60;;;48.40;33.40;;;;;;5093539;28;20216;-65
2022/08/04 14:36:45;;;;;;;0.60;0.60;;;50.40;31.70;;;;;;5084327;28;20293;-65
2022/08/04 14:39:53;;;;;;;0.70;0.70;;;51.40;30.40;;;;;;5074688;28;20279;-65
2022/08/04 14:43:04;;;;;;;0.70;0.70;;;52.30;29.90;;;;;;5073505;28;20626;-65
2022/08/04 14:46:04;;;;;;;0.80;0.80;;;52.70;29.60;;;;;;5073774;28;20196;-65
2022/08/04 14:49:07;;;;;;;0.80;0.80;;;51.70;29.70;;;;;;5073712;28;20196;-65
2022/08/04 14:52:00;;;;;;;0.80;0.80;;;51.70;30.30;;;;;;5074604;28;20234;-66
2022/08/04 14:54:48;;;;;;;0.80;0.80;;;52.40;29.70;;;;;;5074450;28;20258;-65
2022/08/04 14:57:36;;;;;;;0.70;0.70;;;52.30;29.40;;;;;;5074077;28;20278;-65
2022/08/04 15:00:46;;;;;;;0.80;0.80;;;50.70;29.90;;;;;;5072975;28;20275;-66
2022/08/04 15:03:35;;;;;;;0.70;0.70;;;50.30;30.10;;;;;;5073795;28;20224;-66
2022/08/04 15:06:36;;;;;;;0.80;0.80;;;51.20;30.10;;;;;;5074187;28;20193;-65
2022/08/04 15:09:25;;;;;;;0.82;0.82;;;52.10;29.60;;;;;;5074425;28;20294;-65
2022/08/04 15:12:13;;;;;;;0.70;0.70;;;51.10;29.40;;;;;;5074965;28;20196;-65
2022/08/04 15:15:02;;;;;;;0.60;0.60;;;48.30;31.10;;;;;;5073331;28;20224;-65
2022/08/04 15:18:12;;;;;;;0.60;0.60;;;46.00;32.90;;;;;;5074207;28;20287;-66
2022/08/04 15:21:02;;;;;;;0.68;0.68;;;46.90;33.40;;;;;;5073748;28;20207;-66
2022/08/04 15:23:50;;;;;;;0.60;0.60;;;48.20;32.60;;;;;;5073797;28;20230;-66
2022/08/04 15:26:42;;;;;;;0.60;0.60;;;48.90;32.60;;;;;;5072883;28;20215;-66
2022/08/04 15:29:38;;;;;;;0.70;0.70;;;49.90;31.30;;;;;;5073481;28;20193;-66
2022/08/04 15:32:51;;;;;;;0.70;0.70;;;50.20;31.30;;;;;;5072910;28;20279;-66